sensor_id;sensor_type;location;lat;lon;timestamp;pressure;altitude;pressure_sealevel;temperature;humidity
12775;BME280;6451;42.630;23.382;2022-12-07T00:01:18;94414.28;;;5.21;100.00
12775;BME280;6451;42.630;23.382;2022-12-07T00:03:47;94390.78;;;5.05;100.00
12775;BME280;6451;42.630;23.382;2022-12-07T00:06:15;94429.19;;;5.36;100.00
12775;BME280;6451;42.630;23.382;2022-12-07T00:08:45;94422.97;;;5.18;100.00
12775;BME280;6451;42.630;23.382;2022-12-07T00:11:14;94426.91;;;5.21;100.00
12775;BME280;6451;42.630;23.382;2022-12-07T00:13:42;94428.56;;;5.30;100.00
12775;BME280;6451;42.630;23.382;2022-12-07T00:16:11;94405.41;;;5.21;100.00
12775;BME280;6451;42.630;23.382;2022-12-07T00:18:39;94419.69;;;5.30;100.00
12775;BME280;6451;42.630;23.382;2022-12-07T00:21:09;94392.72;;;5.13;100.00
12775;BME280;6451;42.630;23.382;2022-12-07T00:23:36;94422.06;;;5.32;100.00
12775;BME280;6451;42.630;23.382;2022-12-07T00:26:07;94416.50;;;5.28;100.00
12775;BME280;6451;42.630;23.382;2022-12-07T00:28:34;94412.22;;;5.27;100.00
12775;BME280;6451;42.630;23.382;2022-12-07T00:31:03;94408.00;;;5.43;100.00
12775;BME280;6451;42.630;23.382;2022-12-07T00:33:30;94402.78;;;5.38;100.00
12775;BME280;6451;42.630;23.382;2022-12-07T00:36:01;94395.00;;;5.37;100.00
12775;BME280;6451;42.630;23.382;2022-12-07T00:38:29;94398.78;;;5.27;100.00
12775;BME280;6451;42.630;23.382;2022-12-07T00:40:57;94421.75;;;5.33;100.00
12775;BME280;6451;42.630;23.382;2022-12-07T00:43:26;94418.97;;;5.47;100.00
12775;BME280;6451;42.630;23.382;2022-12-07T00:45:53;94388.63;;;5.15;100.00
12775;BME280;6451;42.630;23.382;2022-12-07T00:48:21;94412.91;;;5.41;100.00
12775;BME280;6451;42.630;23.382;2022-12-07T00:50:49;94405.63;;;5.33;100.00
12775;BME280;6451;42.630;23.382;2022-12-07T00:53:16;94407.50;;;5.33;100.00
12775;BME280;6451;42.630;23.382;2022-12-07T00:55:44;94385.19;;;5.32;100.00
12775;BME280;6451;42.630;23.382;2022-12-07T00:58:11;94378.56;;;5.29;100.00
12775;BME280;6451;42.630;23.382;2022-12-07T01:00:40;94348.59;;;5.14;100.00
12775;BME280;6451;42.630;23.382;2022-12-07T01:03:10;94299.47;;;4.91;100.00
12775;BME280;6451;42.630;23.382;2022-12-07T01:05:37;94403.63;;;5.56;100.00
12775;BME280;6451;42.630;23.382;2022-12-07T01:08:05;94405.06;;;5.53;100.00
12775;BME280;6451;42.630;23.382;2022-12-07T01:10:32;94406.59;;;5.37;100.00
12775;BME280;6451;42.630;23.382;2022-12-07T01:12:59;94378.25;;;5.31;100.00
12775;BME280;6451;42.630;23.382;2022-12-07T01:15:27;94398.59;;;5.72;100.00
12775;BME280;6451;42.630;23.382;2022-12-07T01:17:55;94362.78;;;5.45;100.00
12775;BME280;6451;42.630;23.382;2022-12-07T01:20:22;94401.28;;;5.63;100.00
12775;BME280;6451;42.630;23.382;2022-12-07T01:22:49;94375.13;;;5.46;100.00
12775;BME280;6451;42.630;23.382;2022-12-07T01:25:16;94391.41;;;5.50;100.00
12775;BME280;6451;42.630;23.382;2022-12-07T01:27:43;94387.97;;;5.67;100.00
12775;BME280;6451;42.630;23.382;2022-12-07T01:30:11;94377.63;;;5.51;100.00
12775;BME280;6451;42.630;23.382;2022-12-07T01:32:38;94376.69;;;5.47;100.00
12775;BME280;6451;42.630;23.382;2022-12-07T01:35:07;94384.47;;;5.57;100.00
12775;BME280;6451;42.630;23.382;2022-12-07T01:37:35;94378.38;;;5.35;100.00
12775;BME280;6451;42.630;23.382;2022-12-07T01:40:04;94342.09;;;5.06;100.00
12775;BME280;6451;42.630;23.382;2022-12-07T01:42:31;94364.94;;;5.35;100.00
12775;BME280;6451;42.630;23.382;2022-12-07T01:48:05;94366.47;;;5.18;100.00
12775;BME280;6451;42.630;23.382;2022-12-07T01:50:34;94390.44;;;5.37;100.00
12775;BME280;6451;42.630;23.382;2022-12-07T01:53:03;94328.44;;;5.02;100.00
12775;BME280;6451;42.630;23.382;2022-12-07T01:55:35;94346.84;;;5.09;100.00
12775;BME280;6451;42.630;23.382;2022-12-07T01:58:02;94377.00;;;5.37;100.00
12775;BME280;6451;42.630;23.382;2022-12-07T02:00:32;94356.41;;;5.33;100.00
12775;BME280;6451;42.630;23.382;2022-12-07T02:03:04;94371.78;;;5.49;100.00
12775;BME280;6451;42.630;23.382;2022-12-07T02:05:34;94351.16;;;5.27;100.00
12775;BME280;6451;42.630;23.382;2022-12-07T02:08:03;94317.72;;;5.11;100.00
12775;BME280;6451;42.630;23.382;2022-12-07T02:10:31;94142.00;;;3.93;100.00
12775;BME280;6451;42.630;23.382;2022-12-07T02:13:01;94363.03;;;5.35;100.00
12775;BME280;6451;42.630;23.382;2022-12-07T02:15:37;94340.06;;;5.29;100.00
12775;BME280;6451;42.630;23.382;2022-12-07T02:18:11;94362.00;;;5.53;100.00
12775;BME280;6451;42.630;23.382;2022-12-07T02:20:49;94310.31;;;5.17;100.00
12775;BME280;6451;42.630;23.382;2022-12-07T02:23:40;94368.50;;;5.52;100.00
12775;BME280;6451;42.630;23.382;2022-12-07T02:26:31;94371.81;;;5.58;100.00
12775;BME280;6451;42.630;23.382;2022-12-07T02:29:13;94350.41;;;5.44;100.00
12775;BME280;6451;42.630;23.382;2022-12-07T02:31:45;94363.38;;;5.42;100.00
12775;BME280;6451;42.630;23.382;2022-12-07T02:34:19;94329.94;;;5.17;100.00
12775;BME280;6451;42.630;23.382;2022-12-07T02:36:54;94356.09;;;5.43;100.00
12775;BME280;6451;42.630;23.382;2022-12-07T02:39:26;94325.88;;;5.37;100.00
12775;BME280;6451;42.630;23.382;2022-12-07T02:41:58;94315.25;;;5.41;100.00
12775;BME280;6451;42.630;23.382;2022-12-07T02:44:31;94345.66;;;5.41;100.00
12775;BME280;6451;42.630;23.382;2022-12-07T02:47:02;94350.91;;;5.55;100.00
12775;BME280;6451;42.630;23.382;2022-12-07T02:49:30;94354.19;;;5.43;100.00
12775;BME280;6451;42.630;23.382;2022-12-07T02:51:58;94358.34;;;5.58;100.00
12775;BME280;6451;42.630;23.382;2022-12-07T02:54:24;94362.47;;;5.55;100.00
12775;BME280;6451;42.630;23.382;2022-12-07T02:56:56;94316.47;;;5.09;100.00
12775;BME280;6451;42.630;23.382;2022-12-07T02:59:34;94263.09;;;4.85;100.00
12775;BME280;6451;42.630;23.382;2022-12-07T03:02:13;94339.63;;;5.36;100.00
12775;BME280;6451;42.630;23.382;2022-12-07T03:04:50;94311.88;;;5.18;100.00
12775;BME280;6451;42.630;23.382;2022-12-07T03:07:25;94329.50;;;5.41;100.00
12775;BME280;6451;42.630;23.382;2022-12-07T03:10:00;94333.09;;;5.19;100.00
12775;BME280;6451;42.630;23.382;2022-12-07T03:12:32;94312.94;;;4.99;100.00
12775;BME280;6451;42.630;23.382;2022-12-07T03:15:05;94327.38;;;5.21;100.00
12775;BME280;6451;42.630;23.382;2022-12-07T03:17:38;94299.19;;;5.01;100.00
12775;BME280;6451;42.630;23.382;2022-12-07T03:20:11;94331.84;;;5.25;100.00
12775;BME280;6451;42.630;23.382;2022-12-07T03:22:41;94300.00;;;5.10;100.00
12775;BME280;6451;42.630;23.382;2022-12-07T03:25:11;94324.22;;;5.19;100.00
12775;BME280;6451;42.630;23.382;2022-12-07T03:27:43;94311.09;;;5.17;100.00
12775;BME280;6451;42.630;23.382;2022-12-07T03:30:17;94324.88;;;5.16;100.00
12775;BME280;6451;42.630;23.382;2022-12-07T03:32:50;94329.72;;;5.05;100.00
12775;BME280;6451;42.630;23.382;2022-12-07T03:35:22;94330.06;;;5.12;100.00
12775;BME280;6451;42.630;23.382;2022-12-07T03:37:54;94333.59;;;5.21;100.00
12775;BME280;6451;42.630;23.382;2022-12-07T03:40:25;94311.41;;;5.07;100.00
12775;BME280;6451;42.630;23.382;2022-12-07T03:42:55;94331.03;;;5.16;100.00
12775;BME280;6451;42.630;23.382;2022-12-07T03:45:34;94338.34;;;5.24;100.00
12775;BME280;6451;42.630;23.382;2022-12-07T03:48:07;94329.50;;;5.33;100.00
12775;BME280;6451;42.630;23.382;2022-12-07T03:50:43;94329.59;;;5.19;100.00
12775;BME280;6451;42.630;23.382;2022-12-07T03:53:15;94328.84;;;5.27;100.00
12775;BME280;6451;42.630;23.382;2022-12-07T03:55:46;94324.53;;;5.17;100.00
12775;BME280;6451;42.630;23.382;2022-12-07T03:58:18;94300.28;;;5.00;100.00
12775;BME280;6451;42.630;23.382;2022-12-07T04:00:49;94302.66;;;5.01;100.00
12775;BME280;6451;42.630;23.382;2022-12-07T04:03:16;94307.25;;;5.01;100.00
12775;BME280;6451;42.630;23.382;2022-12-07T04:05:43;94319.97;;;5.18;100.00
12775;BME280;6451;42.630;23.382;2022-12-07T04:08:11;94324.69;;;5.21;100.00
12775;BME280;6451;42.630;23.382;2022-12-07T04:10:39;94317.25;;;5.18;100.00
12775;BME280;6451;42.630;23.382;2022-12-07T04:13:06;94320.13;;;5.21;100.00
12775;BME280;6451;42.630;23.382;2022-12-07T04:15:33;94323.25;;;5.06;100.00
12775;BME280;6451;42.630;23.382;2022-12-07T04:18:02;94313.63;;;5.14;100.00
12775;BME280;6451;42.630;23.382;2022-12-07T04:20:30;94324.53;;;5.17;100.00
12775;BME280;6451;42.630;23.382;2022-12-07T04:22:57;94298.41;;;5.00;100.00
12775;BME280;6451;42.630;23.382;2022-12-07T04:25:23;94221.88;;;4.58;100.00
12775;BME280;6451;42.630;23.382;2022-12-07T04:27:50;94293.84;;;5.10;100.00
12775;BME280;6451;42.630;23.382;2022-12-07T04:30:17;94248.31;;;4.65;100.00
12775;BME280;6451;42.630;23.382;2022-12-07T04:32:46;94320.59;;;5.15;100.00
12775;BME280;6451;42.630;23.382;2022-12-07T04:35:15;94331.97;;;5.12;100.00
12775;BME280;6451;42.630;23.382;2022-12-07T04:37:41;94246.69;;;4.55;100.00
12775;BME280;6451;42.630;23.382;2022-12-07T04:40:10;94334.84;;;5.15;100.00
12775;BME280;6451;42.630;23.382;2022-12-07T04:42:39;94325.09;;;4.97;100.00
12775;BME280;6451;42.630;23.382;2022-12-07T04:45:08;94332.41;;;5.05;100.00
12775;BME280;6451;42.630;23.382;2022-12-07T04:47:37;94333.66;;;4.99;100.00
12775;BME280;6451;42.630;23.382;2022-12-07T04:50:09;94334.81;;;5.07;100.00
12775;BME280;6451;42.630;23.382;2022-12-07T04:52:46;94205.94;;;4.22;100.00
12775;BME280;6451;42.630;23.382;2022-12-07T04:55:13;94335.72;;;5.02;100.00
12775;BME280;6451;42.630;23.382;2022-12-07T04:57:40;94189.13;;;4.08;100.00
12775;BME280;6451;42.630;23.382;2022-12-07T05:00:08;94320.66;;;4.92;100.00
12775;BME280;6451;42.630;23.382;2022-12-07T05:02:35;94335.84;;;4.97;100.00
12775;BME280;6451;42.630;23.382;2022-12-07T05:05:02;94316.06;;;4.84;100.00
12775;BME280;6451;42.630;23.382;2022-12-07T05:07:29;94333.34;;;5.00;100.00
12775;BME280;6451;42.630;23.382;2022-12-07T05:09:57;94333.88;;;5.20;100.00
12775;BME280;6451;42.630;23.382;2022-12-07T05:12:24;94327.03;;;5.05;100.00
12775;BME280;6451;42.630;23.382;2022-12-07T05:14:51;94310.19;;;4.82;100.00
12775;BME280;6451;42.630;23.382;2022-12-07T05:17:18;94326.56;;;5.03;100.00
12775;BME280;6451;42.630;23.382;2022-12-07T05:19:45;94333.16;;;4.97;100.00
12775;BME280;6451;42.630;23.382;2022-12-07T05:22:12;94311.63;;;4.88;100.00
12775;BME280;6451;42.630;23.382;2022-12-07T05:24:39;94340.28;;;4.93;100.00
12775;BME280;6451;42.630;23.382;2022-12-07T05:27:07;94336.97;;;4.96;100.00
12775;BME280;6451;42.630;23.382;2022-12-07T05:29:34;94323.50;;;4.87;100.00
12775;BME280;6451;42.630;23.382;2022-12-07T05:32:01;94328.06;;;4.87;100.00
12775;BME280;6451;42.630;23.382;2022-12-07T05:34:28;94338.50;;;4.88;100.00
12775;BME280;6451;42.630;23.382;2022-12-07T05:36:55;94346.22;;;4.81;100.00
12775;BME280;6451;42.630;23.382;2022-12-07T05:39:21;94342.78;;;4.89;100.00
12775;BME280;6451;42.630;23.382;2022-12-07T05:41:48;94349.13;;;4.93;100.00
12775;BME280;6451;42.630;23.382;2022-12-07T05:44:34;94330.66;;;5.00;100.00
12775;BME280;6451;42.630;23.382;2022-12-07T05:47:02;94321.16;;;4.94;100.00
12775;BME280;6451;42.630;23.382;2022-12-07T05:49:28;94303.22;;;4.81;100.00
12775;BME280;6451;42.630;23.382;2022-12-07T05:51:55;94323.38;;;4.92;100.00
12775;BME280;6451;42.630;23.382;2022-12-07T05:54:22;94325.69;;;5.34;100.00
12775;BME280;6451;42.630;23.382;2022-12-07T05:56:49;94326.50;;;5.43;100.00
12775;BME280;6451;42.630;23.382;2022-12-07T05:59:16;94309.56;;;5.34;100.00
12775;BME280;6451;42.630;23.382;2022-12-07T06:01:50;94328.06;;;5.44;100.00
12775;BME280;6451;42.630;23.382;2022-12-07T06:04:17;94326.16;;;5.36;100.00
12775;BME280;6451;42.630;23.382;2022-12-07T06:06:44;94317.75;;;5.20;100.00
12775;BME280;6451;42.630;23.382;2022-12-07T06:09:12;94322.44;;;5.06;100.00
12775;BME280;6451;42.630;23.382;2022-12-07T06:11:39;94328.28;;;4.99;100.00
12775;BME280;6451;42.630;23.382;2022-12-07T06:14:34;94316.41;;;4.91;100.00
12775;BME280;6451;42.630;23.382;2022-12-07T06:17:05;94340.47;;;5.05;100.00
12775;BME280;6451;42.630;23.382;2022-12-07T06:19:34;94301.31;;;4.82;100.00
12775;BME280;6451;42.630;23.382;2022-12-07T06:22:01;94321.91;;;4.86;100.00
12775;BME280;6451;42.630;23.382;2022-12-07T06:24:28;94320.81;;;4.87;100.00
12775;BME280;6451;42.630;23.382;2022-12-07T06:26:56;94336.97;;;4.96;100.00
12775;BME280;6451;42.630;23.382;2022-12-07T06:29:23;94333.13;;;4.88;100.00
12775;BME280;6451;42.630;23.382;2022-12-07T06:31:49;94342.38;;;5.05;100.00
12775;BME280;6451;42.630;23.382;2022-12-07T06:34:19;94336.88;;;5.10;100.00
12775;BME280;6451;42.630;23.382;2022-12-07T06:36:48;94310.09;;;5.05;100.00
12775;BME280;6451;42.630;23.382;2022-12-07T06:39:17;94334.09;;;5.32;100.00
12775;BME280;6451;42.630;23.382;2022-12-07T06:41:44;94324.25;;;5.27;100.00
12775;BME280;6451;42.630;23.382;2022-12-07T06:44:11;94295.25;;;4.98;100.00
12775;BME280;6451;42.630;23.382;2022-12-07T06:46:38;94331.41;;;5.32;100.00
12775;BME280;6451;42.630;23.382;2022-12-07T06:49:07;94339.94;;;5.43;100.00
12775;BME280;6451;42.630;23.382;2022-12-07T06:51:36;94342.63;;;5.34;100.00
12775;BME280;6451;42.630;23.382;2022-12-07T06:54:06;94332.16;;;5.24;100.00
12775;BME280;6451;42.630;23.382;2022-12-07T06:56:33;94329.06;;;5.56;100.00
12775;BME280;6451;42.630;23.382;2022-12-07T06:59:00;94343.16;;;5.53;100.00
12775;BME280;6451;42.630;23.382;2022-12-07T07:01:28;94337.47;;;5.64;100.00
12775;BME280;6451;42.630;23.382;2022-12-07T07:03:54;94332.09;;;5.64;100.00
12775;BME280;6451;42.630;23.382;2022-12-07T07:06:21;94345.53;;;5.64;100.00
12775;BME280;6451;42.630;23.382;2022-12-07T07:08:50;94345.34;;;5.51;100.00
12775;BME280;6451;42.630;23.382;2022-12-07T07:11:17;94345.84;;;5.62;100.00
12775;BME280;6451;42.630;23.382;2022-12-07T07:13:45;94321.25;;;5.29;100.00
12775;BME280;6451;42.630;23.382;2022-12-07T07:16:12;94296.88;;;5.34;100.00
12775;BME280;6451;42.630;23.382;2022-12-07T07:18:40;94338.72;;;5.75;100.00
12775;BME280;6451;42.630;23.382;2022-12-07T07:21:06;94326.38;;;5.65;100.00
12775;BME280;6451;42.630;23.382;2022-12-07T07:23:33;94326.69;;;5.55;100.00
12775;BME280;6451;42.630;23.382;2022-12-07T07:26:02;94336.22;;;5.70;100.00
12775;BME280;6451;42.630;23.382;2022-12-07T07:28:29;94348.56;;;5.88;100.00
12775;BME280;6451;42.630;23.382;2022-12-07T07:30:57;94353.53;;;6.03;100.00
12775;BME280;6451;42.630;23.382;2022-12-07T07:33:24;94341.16;;;6.11;100.00
12775;BME280;6451;42.630;23.382;2022-12-07T07:35:51;94351.91;;;5.85;100.00
12775;BME280;6451;42.630;23.382;2022-12-07T07:38:18;94335.63;;;6.07;100.00
12775;BME280;6451;42.630;23.382;2022-12-07T07:40:45;94349.56;;;6.01;100.00
12775;BME280;6451;42.630;23.382;2022-12-07T07:43:13;94327.84;;;5.97;100.00
12775;BME280;6451;42.630;23.382;2022-12-07T07:45:40;94345.63;;;5.98;100.00
12775;BME280;6451;42.630;23.382;2022-12-07T07:48:07;94341.00;;;6.16;100.00
12775;BME280;6451;42.630;23.382;2022-12-07T07:50:34;94352.56;;;6.08;100.00
12775;BME280;6451;42.630;23.382;2022-12-07T07:53:01;94328.66;;;6.06;100.00
12775;BME280;6451;42.630;23.382;2022-12-07T07:55:30;94348.41;;;6.54;100.00
12775;BME280;6451;42.630;23.382;2022-12-07T07:57:57;94338.88;;;6.56;100.00
12775;BME280;6451;42.630;23.382;2022-12-07T08:00:33;94332.06;;;6.67;100.00
12775;BME280;6451;42.630;23.382;2022-12-07T08:03:03;94331.00;;;6.89;100.00
12775;BME280;6451;42.630;23.382;2022-12-07T08:05:31;94344.34;;;6.94;100.00
12775;BME280;6451;42.630;23.382;2022-12-07T08:07:59;94346.41;;;6.89;100.00
12775;BME280;6451;42.630;23.382;2022-12-07T08:10:26;94348.19;;;6.85;100.00
12775;BME280;6451;42.630;23.382;2022-12-07T08:13:18;94344.06;;;6.79;100.00
12775;BME280;6451;42.630;23.382;2022-12-07T08:15:51;94327.50;;;6.33;100.00
12775;BME280;6451;42.630;23.382;2022-12-07T08:18:19;94349.22;;;6.20;100.00
12775;BME280;6451;42.630;23.382;2022-12-07T08:20:47;94308.03;;;6.28;100.00
12775;BME280;6451;42.630;23.382;2022-12-07T08:23:14;94325.91;;;6.50;100.00
12775;BME280;6451;42.630;23.382;2022-12-07T08:25:41;94339.72;;;6.31;100.00
12775;BME280;6451;42.630;23.382;2022-12-07T08:28:08;94332.91;;;6.33;100.00
12775;BME280;6451;42.630;23.382;2022-12-07T08:30:35;94322.06;;;6.59;100.00
12775;BME280;6451;42.630;23.382;2022-12-07T08:33:03;94340.03;;;7.02;100.00
12775;BME280;6451;42.630;23.382;2022-12-07T08:35:32;94333.22;;;6.96;100.00
12775;BME280;6451;42.630;23.382;2022-12-07T08:37:59;94321.28;;;7.06;100.00
12775;BME280;6451;42.630;23.382;2022-12-07T08:40:27;94333.50;;;7.03;100.00
12775;BME280;6451;42.630;23.382;2022-12-07T08:42:54;94336.66;;;7.05;100.00
12775;BME280;6451;42.630;23.382;2022-12-07T08:45:22;94326.94;;;7.21;100.00
12775;BME280;6451;42.630;23.382;2022-12-07T08:47:52;94327.25;;;7.20;100.00
12775;BME280;6451;42.630;23.382;2022-12-07T08:50:22;94327.34;;;7.32;100.00
12775;BME280;6451;42.630;23.382;2022-12-07T08:52:51;94326.00;;;7.47;100.00
12775;BME280;6451;42.630;23.382;2022-12-07T08:55:20;94311.16;;;7.62;100.00
12775;BME280;6451;42.630;23.382;2022-12-07T08:57:47;94319.31;;;7.74;100.00
12775;BME280;6451;42.630;23.382;2022-12-07T09:00:15;94302.22;;;7.40;100.00
12775;BME280;6451;42.630;23.382;2022-12-07T09:02:43;94299.06;;;7.38;100.00
12775;BME280;6451;42.630;23.382;2022-12-07T09:05:10;94304.38;;;7.76;100.00
12775;BME280;6451;42.630;23.382;2022-12-07T09:07:41;94311.34;;;7.77;100.00
12775;BME280;6451;42.630;23.382;2022-12-07T09:10:10;94305.31;;;7.51;100.00
12775;BME280;6451;42.630;23.382;2022-12-07T09:12:37;94278.03;;;7.23;100.00
12775;BME280;6451;42.630;23.382;2022-12-07T09:15:05;94310.28;;;7.70;100.00
12775;BME280;6451;42.630;23.382;2022-12-07T09:17:32;94298.63;;;7.57;100.00
12775;BME280;6451;42.630;23.382;2022-12-07T09:19:59;94306.13;;;7.72;100.00
12775;BME280;6451;42.630;23.382;2022-12-07T09:22:28;94300.09;;;7.75;100.00
12775;BME280;6451;42.630;23.382;2022-12-07T09:24:57;94289.53;;;8.03;100.00
12775;BME280;6451;42.630;23.382;2022-12-07T09:27:24;94284.28;;;8.07;100.00
12775;BME280;6451;42.630;23.382;2022-12-07T09:29:52;94268.69;;;8.04;100.00
12775;BME280;6451;42.630;23.382;2022-12-07T09:32:20;94272.78;;;8.10;100.00
12775;BME280;6451;42.630;23.382;2022-12-07T09:34:48;94284.66;;;7.97;100.00
12775;BME280;6451;42.630;23.382;2022-12-07T09:37:15;94276.69;;;8.00;100.00
12775;BME280;6451;42.630;23.382;2022-12-07T09:39:42;94279.91;;;7.94;100.00
12775;BME280;6451;42.630;23.382;2022-12-07T09:42:23;94236.50;;;7.99;100.00
12775;BME280;6451;42.630;23.382;2022-12-07T09:44:52;94266.22;;;8.32;100.00
12775;BME280;6451;42.630;23.382;2022-12-07T09:47:19;94239.56;;;8.09;100.00
12775;BME280;6451;42.630;23.382;2022-12-07T09:49:46;94251.38;;;8.05;100.00
12775;BME280;6451;42.630;23.382;2022-12-07T09:52:21;94224.41;;;7.84;100.00
12775;BME280;6451;42.630;23.382;2022-12-07T09:54:51;94259.72;;;8.12;100.00
12775;BME280;6451;42.630;23.382;2022-12-07T09:57:29;94249.16;;;8.19;100.00
12775;BME280;6451;42.630;23.382;2022-12-07T10:00:02;94129.41;;;7.28;100.00
12775;BME280;6451;42.630;23.382;2022-12-07T10:02:35;94177.59;;;7.59;100.00
12775;BME280;6451;42.630;23.382;2022-12-07T10:05:05;94224.56;;;8.00;100.00
12775;BME280;6451;42.630;23.382;2022-12-07T10:07:33;94246.34;;;8.37;100.00
12775;BME280;6451;42.630;23.382;2022-12-07T10:10:03;94205.91;;;8.40;100.00
12775;BME280;6451;42.630;23.382;2022-12-07T10:12:52;94231.97;;;8.81;100.00
12775;BME280;6451;42.630;23.382;2022-12-07T10:15:19;94239.53;;;9.00;100.00
12775;BME280;6451;42.630;23.382;2022-12-07T10:17:48;94224.28;;;9.20;100.00
12775;BME280;6451;42.630;23.382;2022-12-07T10:20:22;94215.97;;;9.13;100.00
12775;BME280;6451;42.630;23.382;2022-12-07T10:23:00;94206.47;;;9.31;100.00
12775;BME280;6451;42.630;23.382;2022-12-07T10:25:30;94217.31;;;9.31;100.00
12775;BME280;6451;42.630;23.382;2022-12-07T10:28:12;94211.81;;;9.68;100.00
12775;BME280;6451;42.630;23.382;2022-12-07T10:30:51;94207.84;;;10.06;100.00
12775;BME280;6451;42.630;23.382;2022-12-07T10:33:32;94203.09;;;9.74;100.00
12775;BME280;6451;42.630;23.382;2022-12-07T10:36:00;94194.78;;;9.67;100.00
12775;BME280;6451;42.630;23.382;2022-12-07T10:38:28;94190.69;;;10.01;100.00
12775;BME280;6451;42.630;23.382;2022-12-07T10:41:05;94195.84;;;9.79;100.00
12775;BME280;6451;42.630;23.382;2022-12-07T10:43:34;94188.88;;;9.37;100.00
12775;BME280;6451;42.630;23.382;2022-12-07T10:46:24;94180.75;;;9.25;100.00
12775;BME280;6451;42.630;23.382;2022-12-07T10:49:01;94136.34;;;9.14;100.00
12775;BME280;6451;42.630;23.382;2022-12-07T10:51:38;94182.41;;;9.82;100.00
12775;BME280;6451;42.630;23.382;2022-12-07T10:54:12;94180.03;;;9.81;100.00
12775;BME280;6451;42.630;23.382;2022-12-07T10:57:02;94171.97;;;9.68;100.00
12775;BME280;6451;42.630;23.382;2022-12-07T10:59:49;94162.66;;;9.54;100.00
12775;BME280;6451;42.630;23.382;2022-12-07T11:02:37;94119.59;;;9.36;100.00
12775;BME280;6451;42.630;23.382;2022-12-07T11:05:19;94110.19;;;9.46;100.00
12775;BME280;6451;42.630;23.382;2022-12-07T11:07:59;94158.47;;;9.84;100.00
12775;BME280;6451;42.630;23.382;2022-12-07T11:10:32;94151.31;;;9.92;100.00
12775;BME280;6451;42.630;23.382;2022-12-07T11:13:22;94142.72;;;9.74;100.00
12775;BME280;6451;42.630;23.382;2022-12-07T11:16:02;94125.88;;;9.40;100.00
12775;BME280;6451;42.630;23.382;2022-12-07T11:18:38;94152.56;;;9.66;100.00
12775;BME280;6451;42.630;23.382;2022-12-07T11:21:10;94126.28;;;9.55;100.00
12775;BME280;6451;42.630;23.382;2022-12-07T11:23:48;94132.41;;;9.52;100.00
12775;BME280;6451;42.630;23.382;2022-12-07T11:26:25;94160.03;;;9.57;100.00
12775;BME280;6451;42.630;23.382;2022-12-07T11:29:13;94151.81;;;9.54;100.00
12775;BME280;6451;42.630;23.382;2022-12-07T11:31:54;94128.91;;;9.51;100.00
12775;BME280;6451;42.630;23.382;2022-12-07T11:34:30;94125.81;;;9.37;100.00
12775;BME280;6451;42.630;23.382;2022-12-07T11:37:09;94145.78;;;9.20;100.00
12775;BME280;6451;42.630;23.382;2022-12-07T11:39:41;94127.31;;;9.10;100.00
12775;BME280;6451;42.630;23.382;2022-12-07T11:42:15;94133.53;;;9.10;100.00
12775;BME280;6451;42.630;23.382;2022-12-07T11:44:48;94129.81;;;9.15;100.00
12775;BME280;6451;42.630;23.382;2022-12-07T11:47:27;94128.25;;;9.02;100.00
12775;BME280;6451;42.630;23.382;2022-12-07T11:50:03;94115.63;;;8.94;100.00
12775;BME280;6451;42.630;23.382;2022-12-07T11:52:43;94115.19;;;8.91;100.00
12775;BME280;6451;42.630;23.382;2022-12-07T11:55:19;94079.56;;;8.89;100.00
12775;BME280;6451;42.630;23.382;2022-12-07T11:57:51;94112.94;;;8.94;100.00
12775;BME280;6451;42.630;23.382;2022-12-07T12:02:57;94090.13;;;9.07;100.00
12775;BME280;6451;42.630;23.382;2022-12-07T12:05:25;94090.13;;;9.07;100.00
12775;BME280;6451;42.630;23.382;2022-12-07T12:51:53;94046.16;;;9.82;100.00
12775;BME280;6451;42.630;23.382;2022-12-07T12:54:23;94056.22;;;9.97;100.00
12775;BME280;6451;42.630;23.382;2022-12-07T12:56:55;93845.25;;;8.57;100.00
12775;BME280;6451;42.630;23.382;2022-12-07T12:59:26;94061.19;;;9.95;100.00
12775;BME280;6451;42.630;23.382;2022-12-07T13:02:00;94053.13;;;9.83;100.00
12775;BME280;6451;42.630;23.382;2022-12-07T13:04:52;94054.91;;;9.91;100.00
12775;BME280;6451;42.630;23.382;2022-12-07T13:07:49;94057.47;;;9.71;100.00
12775;BME280;6451;42.630;23.382;2022-12-07T13:10:43;94046.06;;;9.94;100.00
12775;BME280;6451;42.630;23.382;2022-12-07T13:13:32;94050.63;;;10.06;100.00
12775;BME280;6451;42.630;23.382;2022-12-07T13:16:36;94049.66;;;10.14;100.00
12775;BME280;6451;42.630;23.382;2022-12-07T13:22:35;94067.88;;;9.69;100.00
12775;BME280;6451;42.630;23.382;2022-12-07T13:25:11;94065.53;;;9.84;100.00
12775;BME280;6451;42.630;23.382;2022-12-07T13:27:40;94072.75;;;9.64;100.00
12775;BME280;6451;42.630;23.382;2022-12-07T13:32:38;94053.91;;;9.67;100.00
12775;BME280;6451;42.630;23.382;2022-12-07T13:35:30;94064.38;;;9.69;100.00
12775;BME280;6451;42.630;23.382;2022-12-07T13:37:57;94065.88;;;9.66;100.00
12775;BME280;6451;42.630;23.382;2022-12-07T13:40:26;94052.53;;;9.89;100.00
12775;BME280;6451;42.630;23.382;2022-12-07T13:42:59;94035.31;;;9.82;100.00
12775;BME280;6451;42.630;23.382;2022-12-07T13:45:28;94056.28;;;10.00;100.00
12775;BME280;6451;42.630;23.382;2022-12-07T13:48:14;94035.75;;;9.99;100.00
12775;BME280;6451;42.630;23.382;2022-12-07T13:50:42;94022.44;;;9.79;100.00
12775;BME280;6451;42.630;23.382;2022-12-07T13:53:12;94047.63;;;9.95;100.00
12775;BME280;6451;42.630;23.382;2022-12-07T13:55:46;94035.47;;;9.89;100.00
12775;BME280;6451;42.630;23.382;2022-12-07T13:58:13;94025.44;;;9.89;100.00
12775;BME280;6451;42.630;23.382;2022-12-07T14:00:41;94020.34;;;10.03;100.00
12775;BME280;6451;42.630;23.382;2022-12-07T14:03:25;94029.19;;;10.16;100.00
12775;BME280;6451;42.630;23.382;2022-12-07T14:06:06;94016.06;;;10.02;100.00
12775;BME280;6451;42.630;23.382;2022-12-07T14:08:34;94022.81;;;9.93;100.00
12775;BME280;6451;42.630;23.382;2022-12-07T14:11:02;94047.63;;;9.95;100.00
12775;BME280;6451;42.630;23.382;2022-12-07T14:13:31;94030.75;;;9.86;100.00
12775;BME280;6451;42.630;23.382;2022-12-07T14:15:59;94043.59;;;9.89;100.00